createdAt,value
2017-10-01T00:01:10.079Z,13.02
2017-10-01T00:02:20.426Z,12.92
2017-10-01T00:03:30.448Z,12.95
2017-10-01T00:04:40.789Z,12.96
2017-10-01T00:05:50.816Z,13.03
2017-10-01T00:07:05.338Z,12.98
2017-10-01T00:08:15.370Z,13.01
2017-10-01T00:09:25.377Z,12.91
2017-10-01T00:10:35.704Z,12.89
2017-10-01T00:11:45.716Z,12.91
2017-10-01T00:12:56.061Z,12.91
2017-10-01T00:14:06.388Z,12.92
2017-10-01T00:15:16.728Z,12.91
2017-10-01T00:16:27.067Z,12.91
2017-10-01T00:17:37.394Z,12.88
2017-10-01T00:18:47.771Z,12.86
2017-10-01T00:19:57.777Z,12.81
2017-10-01T00:21:08.110Z,12.86
2017-10-01T00:22:17.802Z,12.89
2017-10-01T00:23:28.153Z,12.83
2017-10-01T00:24:38.535Z,12.89
2017-10-01T00:25:48.861Z,12.83
2017-10-01T00:26:58.887Z,12.88
2017-10-01T00:28:09.220Z,12.77
2017-10-01T00:29:19.548Z,12.77
2017-10-01T00:30:29.929Z,12.8
2017-10-01T00:31:40.261Z,12.74
2017-10-01T00:32:50.599Z,12.76
2017-10-01T00:34:00.940Z,12.81
2017-10-01T00:35:11.284Z,12.73
2017-10-01T00:36:21.613Z,12.74
2017-10-01T00:37:31.947Z,12.78
2017-10-01T00:38:42.281Z,12.77
2017-10-01T00:39:52.614Z,12.74
2017-10-01T00:41:02.940Z,12.73
2017-10-01T00:42:12.953Z,12.71
2017-10-01T00:43:23.293Z,12.65
2017-10-01T00:44:33.319Z,12.77
2017-10-01T00:45:43.662Z,12.77
2017-10-01T00:46:53.995Z,12.77
2017-10-01T00:48:04.321Z,12.73
2017-10-01T00:49:14.026Z,12.66
2017-10-01T00:50:25.257Z,12.65
2017-10-01T00:51:35.288Z,12.55
2017-10-01T00:52:45.612Z,12.63
2017-10-01T00:53:55.953Z,12.62
2017-10-01T00:55:06.282Z,12.61
2017-10-01T00:56:16.618Z,12.59
2017-10-01T00:57:26.654Z,12.58
2017-10-01T00:58:36.983Z,12.58
2017-10-01T00:59:47.371Z,12.59
2017-10-01T01:00:57.704Z,12.55
2017-10-01T01:02:07.737Z,12.62
2017-10-01T01:03:18.059Z,12.56
2017-10-01T01:04:28.389Z,12.61
2017-10-01T01:05:38.719Z,12.61
2017-10-01T01:06:49.084Z,12.52
2017-10-01T01:07:59.417Z,12.62
2017-10-01T01:09:09.767Z,12.56
2017-10-01T01:10:20.098Z,12.52
2017-10-01T01:11:30.125Z,12.53
2017-10-01T01:12:40.462Z,12.44
2017-10-01T01:13:50.799Z,12.45
2017-10-01T01:15:00.814Z,12.44
2017-10-01T01:16:10.824Z,12.48
2017-10-01T01:17:20.857Z,12.52
2017-10-01T01:18:31.175Z,12.44
2017-10-01T01:19:40.873Z,12.53
2017-10-01T01:20:50.881Z,12.48
2017-10-01T01:22:01.202Z,12.4
2017-10-01T01:23:11.583Z,12.44
2017-10-01T01:24:21.595Z,12.47
2017-10-01T01:25:31.622Z,12.4
2017-10-01T01:26:41.957Z,12.52
2017-10-01T01:27:51.969Z,12.44
2017-10-01T01:29:02.343Z,12.53
2017-10-01T01:30:12.689Z,12.44
2017-10-01T01:31:23.036Z,12.51
2017-10-01T01:32:33.063Z,12.48
2017-10-01T01:33:43.414Z,12.44
2017-10-01T01:34:53.452Z,12.48
2017-10-01T01:36:03.816Z,12.41
2017-10-01T01:37:14.151Z,12.38
2017-10-01T01:38:24.167Z,12.43
2017-10-01T01:39:34.203Z,12.47
2017-10-01T01:40:43.906Z,12.41
2017-10-01T01:41:53.925Z,12.44
2017-10-01T01:43:03.624Z,12.47
2017-10-01T01:44:13.329Z,12.43
2017-10-01T01:45:23.028Z,12.45
2017-10-01T01:46:33.047Z,12.47
2017-10-01T01:47:43.372Z,12.45
2017-10-01T01:48:53.707Z,12.45
2017-10-01T01:50:04.040Z,12.38
2017-10-01T01:51:14.061Z,12.41
2017-10-01T01:52:24.397Z,12.4
2017-10-01T01:53:34.726Z,12.38
2017-10-01T01:54:45.066Z,12.36
2017-10-01T01:55:55.074Z,12.38
2017-10-01T01:57:05.417Z,12.41
2017-10-01T01:58:15.480Z,12.36
2017-10-01T01:59:25.493Z,12.37
2017-10-01T02:00:35.840Z,12.36
2017-10-01T02:01:46.203Z,12.38
2017-10-01T02:02:57.211Z,12.4
2017-10-01T02:04:08.333Z,12.33
2017-10-01T02:05:18.676Z,12.4
2017-10-01T02:06:28.698Z,12.36
2017-10-01T02:07:38.717Z,12.47
2017-10-01T02:08:49.047Z,12.45
2017-10-01T02:09:59.121Z,12.47
2017-10-01T02:11:09.450Z,12.47
2017-10-01T02:12:19.482Z,12.44
2017-10-01T02:13:29.821Z,12.52
2017-10-01T02:14:40.154Z,12.45
2017-10-01T02:15:50.182Z,12.55
2017-10-01T02:17:00.510Z,12.61
2017-10-01T02:18:10.846Z,12.52
2017-10-01T02:19:21.172Z,12.59
2017-10-01T02:20:31.520Z,12.56
2017-10-01T02:21:41.903Z,12.62
2017-10-01T02:22:51.929Z,12.65
2017-10-01T02:24:01.941Z,12.58
2017-10-01T02:25:12.294Z,12.69
2017-10-01T02:26:22.775Z,12.56
2017-10-01T02:27:32.833Z,12.69
2017-10-01T02:28:43.177Z,12.78
2017-10-01T02:29:53.194Z,12.77
2017-10-01T02:31:02.907Z,12.78
2017-10-01T02:32:13.238Z,12.71
2017-10-01T02:33:23.569Z,12.76
2017-10-01T02:34:33.267Z,12.83
2017-10-01T02:35:43.285Z,12.77
2017-10-01T02:36:53.628Z,12.81
2017-10-01T02:38:03.968Z,12.83
2017-10-01T02:39:14.303Z,12.81
2017-10-01T02:40:24.636Z,12.77
2017-10-01T02:41:34.662Z,12.73
2017-10-01T02:42:45.000Z,12.83
2017-10-01T02:43:55.339Z,12.77
2017-10-01T02:45:05.679Z,12.7
2017-10-01T02:46:15.704Z,12.8
2017-10-01T02:47:25.719Z,12.71
2017-10-01T02:48:36.062Z,12.74
2017-10-01T02:49:46.080Z,12.7
2017-10-01T02:50:56.416Z,12.73
2017-10-01T02:52:06.448Z,12.71
2017-10-01T02:53:16.809Z,12.66
2017-10-01T02:54:27.152Z,12.55
2017-10-01T02:55:37.484Z,12.61
2017-10-01T02:56:47.829Z,12.63
2017-10-01T02:57:57.848Z,12.59
2017-10-01T02:59:08.178Z,12.61
2017-10-01T03:00:19.465Z,12.59
2017-10-01T03:01:29.477Z,12.59
2017-10-01T03:33:43.321Z,10.18
2017-10-01T03:34:53.642Z,10.2
2017-10-01T03:36:03.969Z,10.23
2017-10-01T03:37:14.008Z,10.29
2017-10-01T03:38:24.034Z,10.28
2017-10-01T03:39:34.373Z,10.32
2017-10-01T03:40:44.700Z,10.41
2017-10-01T03:41:54.697Z,10.61
2017-10-01T03:43:05.029Z,10.83
2017-10-01T03:44:14.411Z,10.85
2017-10-01T03:45:24.735Z,11.06
2017-10-01T03:46:35.071Z,11.13
2017-10-01T03:47:44.766Z,11.39
2017-10-01T03:48:54.785Z,11.45
2017-10-01T03:50:05.120Z,11.53
2017-10-01T03:51:15.205Z,11.67
2017-10-01T03:52:25.529Z,11.82
2017-10-01T03:53:35.864Z,11.85
2017-10-01T03:54:46.173Z,11.85
2017-10-01T03:55:56.503Z,12.03
2017-10-01T03:57:06.586Z,12.15
2017-10-01T03:58:16.943Z,12.15
2017-10-01T03:59:26.958Z,12.22
2017-10-01T04:00:36.975Z,12.22
2017-10-01T04:01:47.338Z,12.26
2017-10-01T04:02:57.084Z,12.34
2017-10-01T04:04:07.421Z,12.44
2017-10-01T04:05:17.435Z,12.38
2017-10-01T04:06:27.442Z,12.44
2017-10-01T04:07:37.764Z,12.53
2017-10-01T04:08:48.090Z,12.59
2017-10-01T04:09:57.796Z,12.52
2017-10-01T04:11:08.128Z,12.56
2017-10-01T04:12:18.474Z,12.59
2017-10-01T04:13:28.495Z,12.56
2017-10-01T04:14:38.821Z,12.59
2017-10-01T04:15:49.159Z,12.59
2017-10-01T04:16:58.856Z,12.56
2017-10-01T04:18:08.893Z,12.61
2017-10-01T04:19:18.904Z,12.58
2017-10-01T04:20:28.962Z,12.62
2017-10-01T04:21:39.300Z,12.59
2017-10-01T04:22:49.643Z,12.62
2017-10-01T04:23:59.974Z,12.59
2017-10-01T04:25:10.013Z,12.61
2017-10-01T04:26:20.359Z,12.76
2017-10-01T04:27:30.722Z,12.61
2017-10-01T04:28:41.065Z,12.73
2017-10-01T04:29:51.096Z,12.76
2017-10-01T04:31:01.443Z,12.73
2017-10-01T04:32:11.775Z,12.78
2017-10-01T04:33:21.480Z,12.78
2017-10-01T04:34:31.816Z,12.78
2017-10-01T04:35:42.173Z,12.69
2017-10-01T04:36:52.511Z,12.8
2017-10-01T04:38:02.537Z,12.78
2017-10-01T04:39:12.887Z,12.7
2017-10-01T04:40:23.230Z,12.73
2017-10-01T04:41:33.578Z,12.83
2017-10-01T04:42:43.928Z,12.81
2017-10-01T04:43:53.944Z,12.83
2017-10-01T04:45:04.284Z,12.83
2017-10-01T04:46:14.616Z,12.89
2017-10-01T04:47:24.948Z,12.81
2017-10-01T04:48:35.275Z,12.89
2017-10-01T04:49:45.670Z,12.91
2017-10-01T04:50:56.019Z,12.91
2017-10-01T04:52:06.354Z,12.98
2017-10-01T04:53:16.682Z,13.02
2017-10-01T04:54:26.721Z,13.06
2017-10-01T04:55:37.108Z,13.02
2017-10-01T04:56:47.126Z,13.11
2017-10-01T04:57:57.458Z,13.16
2017-10-01T04:59:07.779Z,13.16
2017-10-01T05:00:17.801Z,13.24
2017-10-01T05:01:28.184Z,13.29
2017-10-01T05:02:38.519Z,13.31
2017-10-01T05:03:48.857Z,13.37
2017-10-01T05:04:59.202Z,13.47
2017-10-01T05:06:09.535Z,13.51
2017-10-01T05:07:19.241Z,13.45
2017-10-01T05:08:29.282Z,13.53
2017-10-01T05:09:39.630Z,13.5
2017-10-01T05:10:49.984Z,13.5
2017-10-01T05:12:00.342Z,13.65
2017-10-01T05:13:10.676Z,13.58
2017-10-01T05:14:21.007Z,13.58
2017-10-01T05:15:31.361Z,13.53
2017-10-01T05:16:41.374Z,13.62
2017-10-01T05:17:51.711Z,13.63
2017-10-01T05:19:01.739Z,13.72
2017-10-01T05:20:12.057Z,13.72
2017-10-01T05:21:22.388Z,13.73
2017-10-01T05:22:32.086Z,13.78
2017-10-01T05:23:42.115Z,13.76
2017-10-01T05:24:52.136Z,13.75
2017-10-01T05:26:02.459Z,13.87
2017-10-01T05:27:11.872Z,13.87
2017-10-01T05:28:21.907Z,13.84
2017-10-01T05:29:31.930Z,13.91
2017-10-01T05:30:42.277Z,13.87
2017-10-01T05:31:52.619Z,13.93
2017-10-01T05:33:02.971Z,13.87
2017-10-01T05:34:12.991Z,13.95
2017-10-01T05:35:23.003Z,13.94
2017-10-01T05:36:32.771Z,13.95
2017-10-01T05:37:42.790Z,13.94
2017-10-01T05:38:52.808Z,14.06
2017-10-01T05:40:02.822Z,14.08
2017-10-01T05:41:12.842Z,14.15
2017-10-01T05:42:22.845Z,14.19
2017-10-01T05:43:33.176Z,14.16
2017-10-01T05:44:42.887Z,14.2
2017-10-01T05:45:53.209Z,14.19
2017-10-01T05:47:03.536Z,14.31
2017-10-01T05:48:13.578Z,14.26
2017-10-01T05:49:23.909Z,14.38
2017-10-01T05:50:34.252Z,14.38
2017-10-01T05:51:44.270Z,14.39
2017-10-01T05:52:54.605Z,14.46
2017-10-01T05:54:04.948Z,14.46
2017-10-01T05:55:14.968Z,14.46
2017-10-01T05:56:25.362Z,14.48
2017-10-01T05:57:35.702Z,14.52
2017-10-01T05:58:45.715Z,14.53
2017-10-01T05:59:56.061Z,14.67
2017-10-01T06:01:06.072Z,14.7
2017-10-01T06:02:16.426Z,14.63
2017-10-01T06:03:27.324Z,14.64
2017-10-01T06:04:37.355Z,14.71
2017-10-01T06:05:47.699Z,14.82
2017-10-01T06:06:58.028Z,14.74
2017-10-01T06:08:08.093Z,14.77
2017-10-01T06:09:18.422Z,14.85
2017-10-01T06:10:28.777Z,14.89
2017-10-01T06:11:38.806Z,14.9
2017-10-01T06:12:48.810Z,14.98
2017-10-01T06:13:59.201Z,15.02
2017-10-01T06:15:09.554Z,15.07
2017-10-01T06:16:19.775Z,15.12
2017-10-01T06:17:31.060Z,15.13
2017-10-01T06:18:40.771Z,15.16
2017-10-01T06:19:50.846Z,15.23
2017-10-01T06:21:01.190Z,15.27
2017-10-01T06:22:11.525Z,15.3
2017-10-01T06:23:21.232Z,15.4
2017-10-01T06:24:31.258Z,15.45
2017-10-01T06:25:41.594Z,15.45
2017-10-01T06:26:51.936Z,15.53
2017-10-01T06:28:01.988Z,15.56
2017-10-01T06:29:12.021Z,15.6
2017-10-01T06:30:22.055Z,15.68
2017-10-01T06:31:32.083Z,15.74
2017-10-01T06:32:42.418Z,15.84
2017-10-01T06:33:52.435Z,15.88
2017-10-01T06:35:02.773Z,15.91
2017-10-01T06:36:12.495Z,15.96
2017-10-01T06:37:22.863Z,15.96
2017-10-01T06:38:33.198Z,16.04
2017-10-01T06:39:43.568Z,16.08
2017-10-01T06:40:53.593Z,16.11
2017-10-01T06:42:03.634Z,16.25
2017-10-01T06:43:14.018Z,16.25
2017-10-01T06:44:24.364Z,16.34
2017-10-01T06:45:34.399Z,16.39
2017-10-01T06:46:44.746Z,16.33
2017-10-01T06:47:55.071Z,16.45
2017-10-01T06:49:05.461Z,16.42
2017-10-01T06:50:15.798Z,16.45
2017-10-01T06:51:26.143Z,16.59
2017-10-01T06:52:36.490Z,16.63
2017-10-01T06:53:46.522Z,16.73
2017-10-01T06:54:56.918Z,16.72
2017-10-01T06:56:07.257Z,16.82
2017-10-01T06:57:17.292Z,16.9
2017-10-01T06:58:27.640Z,16.97
2017-10-01T06:59:37.992Z,16.97
2017-10-01T07:00:48.013Z,17.1
2017-10-01T07:01:58.029Z,17.09
2017-10-01T07:03:08.378Z,17.22
2017-10-01T07:04:18.736Z,17.27
2017-10-01T07:05:29.061Z,17.31
2017-10-01T07:06:39.397Z,17.28
2017-10-01T07:07:49.431Z,17.35
2017-10-01T07:08:59.780Z,17.46
2017-10-01T07:10:10.122Z,17.47
2017-10-01T07:11:20.158Z,17.6
2017-10-01T07:12:30.495Z,17.52
2017-10-01T07:13:40.537Z,17.65
2017-10-01T07:14:50.561Z,17.68
2017-10-01T07:16:00.908Z,17.81
2017-10-01T07:17:11.270Z,17.81
2017-10-01T07:18:21.615Z,17.86
2017-10-01T07:19:31.963Z,17.94
2017-10-01T07:20:41.992Z,18.06
2017-10-01T07:21:52.017Z,18.1
2017-10-01T07:23:02.362Z,18.2
2017-10-01T07:24:12.695Z,18.21
2017-10-01T07:25:23.034Z,18.2
2017-10-01T07:26:33.362Z,18.27
2017-10-01T07:27:43.078Z,18.26
2017-10-01T07:28:53.421Z,18.42
2017-10-01T07:30:03.766Z,18.47
2017-10-01T07:31:14.996Z,18.45
2017-10-01T07:32:25.338Z,18.57
2017-10-01T07:33:35.358Z,18.61
2017-10-01T07:34:45.063Z,18.63
2017-10-01T07:35:55.482Z,18.68
2017-10-01T07:37:05.500Z,18.86
2017-10-01T07:38:15.840Z,18.87
2017-10-01T07:39:25.969Z,18.91
2017-10-01T07:40:35.980Z,18.9
2017-10-01T07:41:46.385Z,18.97
2017-10-01T07:42:56.401Z,19.06
2017-10-01T07:44:06.723Z,19.09
2017-10-01T07:45:16.765Z,19.1
2017-10-01T07:46:27.113Z,19.24
2017-10-01T07:47:37.204Z,19.24
2017-10-01T07:48:47.552Z,19.3
2017-10-01T07:49:57.884Z,19.37
2017-10-01T07:51:08.234Z,19.52
2017-10-01T07:52:18.580Z,19.55
2017-10-01T07:53:28.963Z,19.61
2017-10-01T07:54:39.299Z,19.67
2017-10-01T07:55:49.630Z,19.78
2017-10-01T07:56:59.972Z,19.83
2017-10-01T07:58:10.324Z,19.8
2017-10-01T07:59:20.341Z,19.93
2017-10-01T08:00:30.700Z,20.02
2017-10-01T08:01:41.063Z,20.02
2017-10-01T08:02:51.416Z,20.11
2017-10-01T08:04:01.765Z,20.12
2017-10-01T08:05:12.108Z,20.12
2017-10-01T08:06:22.476Z,20.23
2017-10-01T08:07:32.815Z,20.25
2017-10-01T08:08:42.836Z,20.25
2017-10-01T08:09:53.167Z,20.34
2017-10-01T08:11:03.571Z,20.42
2017-10-01T08:12:13.926Z,20.53
2017-10-01T08:13:24.257Z,20.64
2017-10-01T08:14:34.282Z,20.64
2017-10-01T08:15:44.291Z,20.72
2017-10-01T08:16:54.634Z,20.79
2017-10-01T08:18:04.989Z,20.86
2017-10-01T08:19:15.357Z,20.98
2017-10-01T08:20:25.058Z,21.01
2017-10-01T08:21:35.424Z,21.19
2017-10-01T08:22:45.840Z,21.09
2017-10-01T08:23:56.176Z,21.19
2017-10-01T08:25:06.530Z,21.25
2017-10-01T08:26:16.887Z,21.21
2017-10-01T08:27:27.247Z,21.22
2017-10-01T08:28:37.641Z,21.25
2017-10-01T08:29:47.668Z,21.49
2017-10-01T08:30:58.017Z,21.56
2017-10-01T08:32:08.036Z,21.59
2017-10-01T08:33:18.399Z,21.74
2017-10-01T08:34:28.729Z,22.08
2017-10-01T08:35:39.092Z,22.23
2017-10-01T08:36:49.138Z,22.26
2017-10-01T08:37:58.869Z,22.29
2017-10-01T08:39:09.212Z,22.48
2017-10-01T08:40:19.637Z,22.55
2017-10-01T08:41:29.979Z,22.48
2017-10-01T08:42:40.327Z,22.49
2017-10-01T08:43:50.665Z,22.64
2017-10-01T08:45:01.018Z,22.71
2017-10-01T08:46:11.363Z,22.61
2017-10-01T08:47:21.733Z,22.71
2017-10-01T08:48:31.781Z,22.81
2017-10-01T08:49:42.127Z,22.91
2017-10-01T08:50:52.472Z,22.81
2017-10-01T08:52:02.880Z,22.76
2017-10-01T08:53:12.924Z,22.6
2017-10-01T08:54:24.099Z,22.73
2017-10-01T08:55:34.146Z,22.6
2017-10-01T08:56:44.495Z,22.46
2017-10-01T08:57:54.592Z,22.55
2017-10-01T08:59:04.614Z,22.29
2017-10-01T09:00:14.973Z,22.31
2017-10-01T09:01:25.327Z,22.31
2017-10-01T09:02:35.359Z,22.46
2017-10-01T09:03:45.765Z,22.57
2017-10-01T09:04:55.856Z,22.41
2017-10-01T09:06:06.225Z,22.34
2017-10-01T09:07:16.281Z,22.29
2017-10-01T09:08:26.642Z,22.38
2017-10-01T09:09:36.991Z,22.67
2017-10-01T09:10:47.338Z,22.66
2017-10-01T09:11:57.386Z,22.54
2017-10-01T09:13:07.742Z,22.42
2017-10-01T09:14:18.111Z,22.26
2017-10-01T09:15:28.468Z,22.36
2017-10-01T09:16:38.833Z,22.45
2017-10-01T09:17:49.194Z,22.45
2017-10-01T09:18:59.554Z,22.46
2017-10-01T09:20:09.905Z,22.34
2017-10-01T09:21:20.264Z,22.36
2017-10-01T09:22:30.308Z,22.34
2017-10-01T09:23:40.734Z,22.41
2017-10-01T09:24:51.083Z,22.52
2017-10-01T09:26:01.106Z,22.51
2017-10-01T09:27:11.158Z,22.81
2017-10-01T09:28:21.188Z,22.94
2017-10-01T09:29:31.699Z,22.97
2017-10-01T09:30:42.068Z,22.97
2017-10-01T09:31:52.141Z,22.91
2017-10-01T09:33:02.543Z,22.92
2017-10-01T09:34:13.291Z,22.99
2017-10-01T09:35:23.322Z,22.97
2017-10-01T09:36:33.683Z,23
2017-10-01T09:37:44.025Z,22.88
2017-10-01T09:38:54.122Z,22.92
2017-10-01T09:40:04.471Z,23
2017-10-01T09:41:14.506Z,22.92
2017-10-01T09:42:24.862Z,22.94
2017-10-01T09:43:34.933Z,22.97
2017-10-01T09:44:45.324Z,23.15
2017-10-01T09:45:55.070Z,23.22
2017-10-01T09:47:05.124Z,23.35
2017-10-01T09:48:15.148Z,23.44
2017-10-01T09:49:25.158Z,23.16
2017-10-01T09:50:35.520Z,23.04
2017-10-01T09:51:45.868Z,23.01
2017-10-01T09:52:56.222Z,22.88
2017-10-01T09:54:06.590Z,22.86
2017-10-01T09:55:16.307Z,22.88
2017-10-01T09:56:26.712Z,23.21
2017-10-01T09:57:37.076Z,23.48
2017-10-01T09:58:47.107Z,23.71
2017-10-01T09:59:57.464Z,23.56
2017-10-01T10:01:07.831Z,23.26
2017-10-01T10:02:17.870Z,23.14
2017-10-01T10:03:27.900Z,23.38
2017-10-01T10:04:37.943Z,23.62
2017-10-01T10:05:48.306Z,23.53
2017-10-01T10:06:58.665Z,23.81
2017-10-01T10:08:08.075Z,23.92
2017-10-01T10:09:18.433Z,24.03
2017-10-01T10:10:28.789Z,24.09
2017-10-01T10:11:38.831Z,23.87
2017-10-01T10:12:49.169Z,23.89
2017-10-01T10:13:59.519Z,23.84
2017-10-01T10:15:09.547Z,23.75
2017-10-01T10:16:19.593Z,23.62
2017-10-01T10:17:29.944Z,23.6
2017-10-01T10:18:39.984Z,23.82
2017-10-01T10:19:49.758Z,23.81
2017-10-01T10:21:00.100Z,23.96
2017-10-01T10:22:10.443Z,23.87
2017-10-01T10:23:20.790Z,23.93
2017-10-01T10:24:30.840Z,23.92
2017-10-01T10:25:40.933Z,23.96
2017-10-01T10:26:51.002Z,24
2017-10-01T10:28:01.363Z,24.03
2017-10-01T10:29:11.723Z,24
2017-10-01T10:30:22.096Z,24.04
2017-10-01T10:31:32.508Z,23.93
2017-10-01T10:32:42.853Z,23.92
2017-10-01T10:33:53.204Z,23.92
2017-10-01T10:35:03.560Z,23.94
2017-10-01T10:36:13.592Z,24.07
2017-10-01T10:37:23.957Z,23.97
2017-10-01T10:38:34.311Z,24.03
2017-10-01T10:39:44.647Z,24
2017-10-01T10:40:55.004Z,24.11
2017-10-01T10:42:05.338Z,24.14
2017-10-01T10:43:15.739Z,24.18
2017-10-01T10:44:25.811Z,24.18
2017-10-01T10:45:35.845Z,24.12
2017-10-01T10:46:45.565Z,24.17
2017-10-01T10:47:55.582Z,24.18
2017-10-01T10:49:05.990Z,24.17
2017-10-01T10:50:16.340Z,24.15
2017-10-01T10:51:26.356Z,24.32
2017-10-01T10:52:36.733Z,24.34
2017-10-01T10:53:46.454Z,24.46
2017-10-01T10:54:56.868Z,24.54
2017-10-01T10:56:07.212Z,24.67
2017-10-01T10:57:17.251Z,24.7
2017-10-01T10:58:27.287Z,24.56
2017-10-01T10:59:37.628Z,24.63
2017-10-01T11:00:47.730Z,24.64
2017-10-01T11:01:58.076Z,24.69
2017-10-01T11:03:08.113Z,24.71
2017-10-01T11:04:19.105Z,24.7
2017-10-01T11:05:29.957Z,24.71
2017-10-01T11:06:40.353Z,24.77
2017-10-01T11:07:50.690Z,24.82
2017-10-01T11:09:01.049Z,24.82
2017-10-01T11:10:11.093Z,24.86
2017-10-01T11:11:21.106Z,24.87
2017-10-01T11:12:31.485Z,25.07
2017-10-01T11:13:41.828Z,25.12
2017-10-01T11:14:51.854Z,25.08
2017-10-01T11:16:01.908Z,25.14
2017-10-01T11:17:12.256Z,25.14
2017-10-01T11:18:23.758Z,24.96
2017-10-01T11:19:34.114Z,25.01
2017-10-01T11:20:44.141Z,25.02
2017-10-01T11:21:53.863Z,25.12
2017-10-01T11:23:04.224Z,25.29
2017-10-01T11:24:14.324Z,25.3
2017-10-01T11:25:24.351Z,25.32
2017-10-01T11:26:34.684Z,25.23
2017-10-01T11:27:44.396Z,25.15
2017-10-01T11:28:54.738Z,25.22
2017-10-01T11:30:04.788Z,25.15
2017-10-01T11:31:15.137Z,25.34
2017-10-01T11:32:25.478Z,25.27
2017-10-01T11:33:35.821Z,25.3
2017-10-01T11:34:46.198Z,25.32
2017-10-01T11:35:56.603Z,25.39
2017-10-01T11:37:06.942Z,25.42
2017-10-01T11:38:16.969Z,25.49
2017-10-01T11:39:27.318Z,25.45
2017-10-01T11:40:37.354Z,25.47
2017-10-01T11:41:47.122Z,25.54
2017-10-01T11:42:57.496Z,25.59
2017-10-01T11:44:07.540Z,25.69
2017-10-01T11:45:17.900Z,25.57
2017-10-01T11:46:27.930Z,25.6
2017-10-01T11:47:38.282Z,25.39
2017-10-01T11:48:48.637Z,25.42
2017-10-01T11:49:58.993Z,25.38
2017-10-01T11:51:09.334Z,25.41
2017-10-01T11:52:19.369Z,25.41
2017-10-01T11:53:29.754Z,25.42
2017-10-01T11:54:40.112Z,25.42
2017-10-01T11:55:50.459Z,25.3
2017-10-01T11:57:00.795Z,25.26
2017-10-01T11:58:10.516Z,25.3
2017-10-01T11:59:20.874Z,25.27
2017-10-01T12:00:30.923Z,25.29
2017-10-01T12:01:40.956Z,25.15
2017-10-01T12:02:50.977Z,25.2
2017-10-01T12:04:01.007Z,25.27
2017-10-01T12:05:11.404Z,25.38
2017-10-01T12:06:21.743Z,25.39
2017-10-01T12:07:32.098Z,25.39
2017-10-01T12:08:42.128Z,25.48
2017-10-01T12:09:51.844Z,25.32
2017-10-01T12:11:02.242Z,25.27
2017-10-01T12:12:12.595Z,25.27
2017-10-01T12:13:22.958Z,25.22
2017-10-01T12:14:33.320Z,25.14
2017-10-01T12:15:43.341Z,25.15
2017-10-01T12:16:53.069Z,25.15
2017-10-01T12:18:03.436Z,25.14
2017-10-01T12:19:13.791Z,25.14
2017-10-01T12:20:23.835Z,25
2017-10-01T12:21:34.176Z,25.02
2017-10-01T12:22:44.559Z,25.01
2017-10-01T12:23:54.592Z,25
2017-10-01T12:25:04.947Z,24.97
2017-10-01T12:26:15.316Z,25.02
2017-10-01T12:27:25.355Z,25.12
2017-10-01T12:28:35.766Z,25.23
2017-10-01T12:29:46.124Z,25.32
2017-10-01T12:30:56.461Z,25.42
2017-10-01T12:32:06.823Z,25.47
2017-10-01T12:33:17.174Z,25.51
2017-10-01T12:34:27.246Z,25.48
2017-10-01T12:35:37.622Z,25.51
2017-10-01T12:36:47.986Z,25.52
2017-10-01T12:37:58.337Z,25.56
2017-10-01T12:39:08.367Z,25.44
2017-10-01T12:40:18.716Z,25.47
2017-10-01T12:41:28.761Z,25.49
2017-10-01T12:42:39.096Z,25.48
2017-10-01T12:43:49.142Z,25.44
2017-10-01T12:44:59.199Z,25.49
2017-10-01T12:46:09.276Z,25.49
2017-10-01T12:47:19.629Z,25.48
2017-10-01T12:48:29.992Z,25.39
2017-10-01T12:49:40.350Z,25.42
2017-10-01T12:50:50.721Z,25.3
2017-10-01T12:52:01.625Z,25.32
2017-10-01T12:53:11.985Z,25.39
2017-10-01T12:54:22.363Z,25.44
2017-10-01T12:55:32.715Z,25.41
2017-10-01T12:56:43.063Z,25.41
2017-10-01T12:57:53.143Z,25.44
2017-10-01T12:59:03.164Z,25.49
2017-10-01T13:00:13.212Z,25.51
2017-10-01T13:01:23.559Z,25.56
2017-10-01T13:02:33.919Z,25.47
2017-10-01T13:03:44.305Z,25.38
2017-10-01T13:04:54.338Z,25.27
2017-10-01T13:06:04.679Z,25.14
2017-10-01T13:07:14.395Z,25.26
2017-10-01T13:08:24.740Z,25.29
2017-10-01T13:09:35.089Z,25.29
2017-10-01T13:10:45.126Z,25.23
2017-10-01T13:11:55.476Z,25.27
2017-10-01T13:13:05.819Z,25.39
2017-10-01T13:14:16.168Z,25.42
2017-10-01T13:15:26.245Z,25.29
2017-10-01T13:16:36.603Z,25.08
2017-10-01T13:17:46.944Z,25
2017-10-01T13:18:56.975Z,25.08
2017-10-01T13:20:07.020Z,25.22
2017-10-01T13:21:17.359Z,25.14
2017-10-01T13:22:27.716Z,25.19
2017-10-01T13:23:38.086Z,25.3
2017-10-01T13:24:48.434Z,25.47
2017-10-01T13:25:58.470Z,25.67
2017-10-01T13:27:08.815Z,25.6
2017-10-01T13:28:19.156Z,25.75
2017-10-01T13:29:29.510Z,25.75
2017-10-01T13:30:39.549Z,25.79
2017-10-01T13:31:49.901Z,25.84
2017-10-01T13:33:00.295Z,25.79
2017-10-01T13:34:10.323Z,25.79
2017-10-01T13:35:20.677Z,25.69
2017-10-01T13:36:31.053Z,25.75
2017-10-01T13:37:41.094Z,25.67
2017-10-01T13:38:51.495Z,25.64
2017-10-01T13:40:01.849Z,25.51
2017-10-01T13:41:11.878Z,25.14
2017-10-01T13:42:21.931Z,24.87
2017-10-01T13:43:31.643Z,25
2017-10-01T13:44:41.703Z,25.02
2017-10-01T13:45:52.050Z,25.02
2017-10-01T13:47:02.409Z,24.97
2017-10-01T13:48:12.776Z,25.01
2017-10-01T13:49:22.821Z,24.94
2017-10-01T13:50:33.201Z,25.02
2017-10-01T13:51:43.570Z,24.94
2017-10-01T13:52:53.915Z,24.89
2017-10-01T13:54:04.276Z,24.69
2017-10-01T13:55:14.632Z,24.51
2017-10-01T13:56:24.999Z,24.44
2017-10-01T13:57:35.348Z,24.45
2017-10-01T13:58:45.379Z,24.4
2017-10-01T13:59:56.465Z,24.09
2017-10-01T14:01:06.812Z,23.84
2017-10-01T14:02:17.154Z,23.99
2017-10-01T14:03:27.491Z,23.97
2017-10-01T14:04:37.827Z,24.07
2017-10-01T14:05:48.194Z,23.96
2017-10-01T14:06:58.556Z,23.7
2017-10-01T14:08:08.908Z,23.5
2017-10-01T14:09:19.264Z,23.22
2017-10-01T14:10:29.600Z,23.18
2017-10-01T14:11:39.946Z,23.18
2017-10-01T14:12:50.281Z,23.03
2017-10-01T14:14:00.691Z,22.91
2017-10-01T14:15:11.039Z,23.15
2017-10-01T14:16:21.395Z,23.41
2017-10-01T14:17:31.746Z,23.42
2017-10-01T14:18:42.091Z,23.57
2017-10-01T14:19:52.479Z,23.56
2017-10-01T14:21:02.863Z,23.52
2017-10-01T14:22:13.204Z,23.28
2017-10-01T14:23:23.586Z,23.19
2017-10-01T14:24:33.323Z,23.21
2017-10-01T14:25:43.404Z,23.21
2017-10-01T14:26:53.440Z,23.26
2017-10-01T14:28:03.813Z,23.29
2017-10-01T14:29:14.173Z,23.18
2017-10-01T14:30:24.530Z,22.96
2017-10-01T14:31:34.879Z,22.97
2017-10-01T14:32:45.240Z,23
2017-10-01T14:33:55.592Z,22.89
2017-10-01T14:35:05.930Z,22.89
2017-10-01T14:36:16.286Z,22.86
2017-10-01T14:37:26.356Z,22.82
2017-10-01T14:38:36.384Z,22.79
2017-10-01T14:39:46.740Z,22.82
2017-10-01T14:40:57.112Z,22.78
2017-10-01T14:42:07.458Z,22.86
2017-10-01T14:43:17.806Z,22.92
2017-10-01T14:44:28.165Z,22.88
2017-10-01T14:45:38.504Z,22.99
2017-10-01T14:46:48.842Z,23
2017-10-01T14:47:59.203Z,23.19
2017-10-01T14:49:09.294Z,23.09
2017-10-01T14:50:19.657Z,23.15
2017-10-01T14:51:30.012Z,23.14
2017-10-01T14:52:40.342Z,23.14
2017-10-01T14:53:50.696Z,23.24
2017-10-01T14:55:00.823Z,23.35
2017-10-01T14:56:10.865Z,23.24
2017-10-01T14:57:21.226Z,23.26
2017-10-01T14:58:31.609Z,23.24
2017-10-01T14:59:41.957Z,23.15
2017-10-01T15:00:52.034Z,22.97
2017-10-01T15:02:02.390Z,22.91
2017-10-01T15:03:12.125Z,22.94
2017-10-01T15:04:22.176Z,22.88
2017-10-01T15:05:32.547Z,23.06
2017-10-01T15:06:42.948Z,22.99
2017-10-01T15:07:53.304Z,22.91
2017-10-01T15:09:03.651Z,22.92
2017-10-01T15:10:13.983Z,22.81
2017-10-01T15:11:24.330Z,22.75
2017-10-01T15:12:34.670Z,22.64
2017-10-01T15:13:45.022Z,22.57
2017-10-01T15:14:55.389Z,22.57
2017-10-01T15:16:05.736Z,22.51
2017-10-01T15:17:15.539Z,22.42
2017-10-01T15:18:25.610Z,22.38
2017-10-01T15:19:35.946Z,22.26
2017-10-01T15:20:46.294Z,22.22
2017-10-01T15:21:56.319Z,22.2
2017-10-01T15:23:06.345Z,22.22
2017-10-01T15:24:16.693Z,22.15
2017-10-01T15:25:27.035Z,22.04
2017-10-01T15:26:37.381Z,21.99
2017-10-01T15:27:47.750Z,21.89
2017-10-01T15:28:57.788Z,21.8
2017-10-01T15:30:08.179Z,21.9
2017-10-01T15:31:18.215Z,21.85
2017-10-01T15:32:28.570Z,21.8
2017-10-01T15:33:38.597Z,21.74
2017-10-01T15:34:48.648Z,21.76
2017-10-01T15:35:58.715Z,21.71
2017-10-01T15:37:09.061Z,21.64
2017-10-01T15:38:19.101Z,21.55
2017-10-01T15:39:29.150Z,21.61